Terminal Aerodrome Forecast
Issued by NWS

Home | Current Version | Previous Version | Text Only | Print | Product List | Glossary On
Versions: 1 2 3 4 5 6 7 8 9 10 11 12 13 14 15 16 17 18 19 20
000
FTUS43 KAPX 292320
TAFAPN
TAF
KAPN 292320Z 3000/3024 21011G20KT P6SM VCSH SCT025 OVC035
      TEMPO 3000/3004 4SM -SN BR OVC018
     FM300600 28013G22KT P6SM VCSH OVC025
     FM301200 30012G21KT P6SM BKN035=

USA.gov is the U.S. government's official web portal to all federal, state and local government web resources and services.